createdAt,value
2023-05-02T05:23:51.333Z,13.92
2023-05-02T05:25:54.194Z,14.25
2023-05-02T05:27:57.005Z,14.49
2023-05-02T05:30:00.434Z,14.69
2023-05-02T05:32:03.632Z,14.80
2023-05-02T05:34:06.724Z,14.93
2023-05-02T05:36:10.989Z,14.97
2023-05-02T05:38:13.793Z,15.05
2023-05-02T05:40:17.939Z,15.11
2023-05-02T05:42:20.923Z,15.19
2023-05-02T05:44:25.416Z,15.22
2023-05-02T05:46:28.291Z,15.23
2023-05-02T05:48:31.443Z,15.33
2023-05-02T05:50:34.263Z,15.40
2023-05-02T05:52:37.432Z,15.44
2023-05-02T05:54:41.751Z,15.52
2023-05-02T05:56:49.127Z,15.64
2023-05-02T05:58:51.824Z,15.83
2023-05-02T06:00:54.954Z,15.93
2023-05-02T06:02:57.820Z,16.05
2023-05-02T06:05:00.852Z,16.15
2023-05-02T06:07:03.742Z,16.23
2023-05-02T06:09:07.162Z,16.32
2023-05-02T06:11:11.658Z,16.41
2023-05-02T06:13:16.500Z,16.51
2023-05-02T06:15:19.630Z,16.56
2023-05-02T06:17:22.627Z,16.59
2023-05-02T06:19:25.590Z,16.62
2023-05-02T06:21:29.746Z,16.63
2023-05-02T06:23:33.376Z,16.66
2023-05-02T06:25:38.895Z,16.71
2023-05-02T06:27:41.746Z,16.70
2023-05-02T06:29:47.123Z,16.72
2023-05-02T06:31:51.019Z,16.80
2023-05-02T06:33:53.897Z,16.79
2023-05-02T06:35:58.522Z,16.74
2023-05-02T06:38:02.122Z,16.76
2023-05-02T06:40:05.637Z,16.75
2023-05-02T06:42:09.725Z,16.76
2023-05-02T06:44:12.811Z,16.72
2023-05-02T06:46:17.407Z,16.73
2023-05-02T06:48:21.490Z,16.76
2023-05-02T06:50:24.328Z,16.71
2023-05-02T06:52:27.414Z,16.71
2023-05-02T06:54:30.384Z,16.73
2023-05-02T06:56:33.662Z,16.69
2023-05-02T06:58:36.716Z,16.71
2023-05-02T07:00:39.834Z,16.74
2023-05-02T07:02:44.283Z,16.77
2023-05-02T07:04:47.335Z,16.77
2023-05-02T07:06:50.818Z,16.73
2023-05-02T07:08:53.988Z,16.73
2023-05-02T07:10:56.769Z,16.70
2023-05-02T07:12:59.614Z,16.68
2023-05-02T07:15:02.512Z,16.62
2023-05-02T07:17:05.895Z,16.51
2023-05-02T07:19:10.171Z,16.42
2023-05-02T07:21:13.364Z,16.37
2023-05-02T07:23:16.297Z,16.39
2023-05-02T07:25:19.226Z,16.43
2023-05-02T07:27:24.175Z,16.44
2023-05-02T07:29:27.121Z,16.38
2023-05-02T07:31:30.123Z,16.39
2023-05-02T07:33:32.960Z,16.37
2023-05-02T07:35:37.355Z,16.37
2023-05-02T07:37:40.267Z,16.33
2023-05-02T07:39:43.410Z,16.33
2023-05-02T07:41:46.422Z,16.34
2023-05-02T07:43:49.446Z,16.33
2023-05-02T07:45:52.410Z,16.37
2023-05-02T07:47:55.463Z,16.43
2023-05-02T07:49:58.530Z,16.46
2023-05-02T07:52:03.283Z,16.52
2023-05-02T07:54:16.498Z,16.49
2023-05-02T07:56:19.591Z,16.50
2023-05-02T07:58:24.060Z,16.50
2023-05-02T08:00:27.151Z,16.52
2023-05-02T08:02:37.422Z,16.53
2023-05-02T08:04:41.535Z,16.57
2023-05-02T08:06:46.143Z,16.60
2023-05-02T08:08:50.582Z,16.65
2023-05-02T08:10:53.542Z,16.67
2023-05-02T08:12:56.948Z,16.67
2023-05-02T08:14:59.750Z,16.66
2023-05-02T08:17:06.988Z,16.69
2023-05-02T08:19:10.055Z,16.74
2023-05-02T08:21:13.267Z,16.78
2023-05-02T08:23:16.635Z,16.86
2023-05-02T08:25:21.281Z,16.95
2023-05-02T08:27:24.108Z,17.01
2023-05-02T08:29:28.454Z,17.03
2023-05-02T08:31:31.462Z,17.05
2023-05-02T08:33:34.371Z,17.09
2023-05-02T08:35:37.434Z,17.10
2023-05-02T08:37:42.744Z,17.12
2023-05-02T08:39:46.046Z,17.16
2023-05-02T08:41:52.883Z,17.21
2023-05-02T08:43:57.623Z,17.24
2023-05-02T08:46:02.557Z,17.28
2023-05-02T08:48:08.605Z,17.29
2023-05-02T08:50:12.325Z,17.30
2023-05-02T08:52:16.905Z,17.30
2023-05-02T08:54:22.576Z,17.32
2023-05-02T08:56:27.409Z,17.34
2023-05-02T08:58:33.871Z,17.36
2023-05-02T09:00:40.210Z,17.34
2023-05-02T09:03:01.349Z,17.35
2023-05-02T09:05:08.607Z,17.37
2023-05-02T09:07:11.762Z,17.40
2023-05-02T09:09:17.743Z,17.46
2023-05-02T09:11:22.419Z,17.52
2023-05-02T09:13:37.765Z,17.53
2023-05-02T09:15:40.662Z,17.55
2023-05-02T09:17:44.802Z,17.57
2023-05-02T09:19:47.950Z,17.64
2023-05-02T09:21:51.256Z,17.68
2023-05-02T09:23:56.858Z,17.70
2023-05-02T09:26:00.193Z,17.68
2023-05-02T09:28:03.450Z,17.70
2023-05-02T09:30:31.675Z,17.75
2023-05-02T09:32:47.892Z,17.73
2023-05-02T09:35:06.176Z,17.75
2023-05-02T09:37:11.259Z,17.80
2023-05-02T09:39:15.589Z,17.83
2023-05-02T09:41:20.942Z,17.86
2023-05-02T09:43:24.289Z,17.86
2023-05-02T09:45:28.836Z,17.84
2023-05-02T09:47:33.234Z,17.83
2023-05-02T09:49:44.745Z,17.91
2023-05-02T09:51:48.552Z,17.93
2023-05-02T09:53:52.546Z,17.94
2023-05-02T09:56:01.848Z,17.97
2023-05-02T09:58:05.885Z,18.02
2023-05-02T10:00:10.395Z,18.06
2023-05-02T10:02:13.791Z,18.06
2023-05-02T10:04:20.711Z,18.09
2023-05-02T10:06:24.188Z,18.09
2023-05-02T10:08:28.918Z,18.07
2023-05-02T10:10:37.113Z,18.09
2023-05-02T10:12:41.299Z,18.11
2023-05-02T10:14:50.048Z,18.14
2023-05-02T10:17:01.457Z,18.16
2023-05-02T10:19:08.982Z,18.26
2023-05-02T10:21:16.017Z,18.31
2023-05-02T10:23:21.494Z,18.35
2023-05-02T10:25:26.977Z,18.39
2023-05-02T10:27:32.025Z,18.37
2023-05-02T10:29:36.175Z,18.38
2023-05-02T10:31:41.812Z,18.40
2023-05-02T10:33:47.889Z,18.42
2023-05-02T10:35:51.630Z,18.43
2023-05-02T10:37:56.393Z,18.48
2023-05-02T10:40:00.413Z,18.52
2023-05-02T10:42:08.630Z,18.54
2023-05-02T10:44:12.205Z,18.58
2023-05-02T10:46:35.065Z,18.63
2023-05-02T10:48:38.804Z,18.66
2023-05-02T10:50:47.445Z,18.69
2023-05-02T10:52:50.264Z,18.70
2023-05-02T10:55:15.096Z,18.71
2023-05-02T10:57:18.027Z,18.73
2023-05-02T10:59:31.651Z,18.76
2023-05-02T11:01:37.997Z,18.80
2023-05-02T11:03:57.533Z,18.81
2023-05-02T11:06:07.802Z,18.85
2023-05-02T11:08:32.583Z,18.88
2023-05-02T11:10:36.897Z,18.92
2023-05-02T11:12:47.492Z,18.93
2023-05-02T11:14:50.831Z,18.93
2023-05-02T11:17:07.505Z,18.94
2023-05-02T11:19:10.810Z,18.99
2023-05-02T11:21:30.045Z,19.04
2023-05-02T11:23:37.007Z,19.07
2023-05-02T11:25:43.908Z,19.09
2023-05-02T11:27:49.281Z,19.10
2023-05-02T11:29:55.448Z,19.14
2023-05-02T11:31:58.461Z,19.18
2023-05-02T11:34:02.574Z,19.17
2023-05-02T11:36:05.886Z,19.22
2023-05-02T11:38:12.261Z,19.22
2023-05-02T11:40:16.295Z,19.19
2023-05-02T11:42:30.917Z,19.22
2023-05-02T11:44:33.700Z,19.23
2023-05-02T11:46:39.452Z,19.25
2023-05-02T11:48:42.967Z,19.28
2023-05-02T11:50:50.144Z,19.26
2023-05-02T11:52:53.358Z,19.29
2023-05-02T11:54:56.869Z,19.30
2023-05-02T11:57:02.605Z,19.27
2023-05-02T11:59:08.497Z,19.31
2023-05-02T12:01:15.872Z,19.32
2023-05-02T12:03:32.424Z,19.31
2023-05-02T12:05:35.552Z,19.30
2023-05-02T12:07:39.461Z,19.33
2023-05-02T12:09:52.548Z,19.38
2023-05-02T12:11:55.588Z,19.44
2023-05-02T12:13:58.943Z,19.45
2023-05-02T12:16:04.456Z,19.46
2023-05-02T12:18:08.412Z,19.46
2023-05-02T12:20:13.079Z,19.47
2023-05-02T12:22:16.839Z,19.52
2023-05-02T12:24:19.763Z,19.50
2023-05-02T12:26:25.363Z,19.54
2023-05-02T12:28:28.900Z,19.57
2023-05-02T12:30:33.129Z,19.58
2023-05-02T12:32:38.616Z,19.58
2023-05-02T12:34:42.540Z,19.60
2023-05-02T12:36:46.103Z,19.63
2023-05-02T12:38:53.432Z,19.64
2023-05-02T12:40:58.423Z,19.64
2023-05-02T12:43:06.308Z,19.67
2023-05-02T12:45:18.226Z,19.70
2023-05-02T12:47:22.709Z,19.72
2023-05-02T12:49:27.057Z,19.75
2023-05-02T12:51:31.753Z,19.77
2023-05-02T12:53:42.037Z,19.82
2023-05-02T12:55:45.956Z,19.82
2023-05-02T12:57:49.528Z,19.79
2023-05-02T12:59:54.298Z,19.77
2023-05-02T13:01:57.259Z,19.79
2023-05-02T13:04:00.383Z,19.80
2023-05-02T13:06:05.299Z,19.83
2023-05-02T13:08:08.331Z,19.85
2023-05-02T13:10:12.237Z,19.83
2023-05-02T13:12:15.220Z,19.84
2023-05-02T13:14:18.165Z,19.85
2023-05-02T13:16:21.359Z,19.87
2023-05-02T13:18:24.335Z,19.91
2023-05-02T13:20:27.619Z,19.96
2023-05-02T13:22:33.036Z,19.97
2023-05-02T13:24:36.195Z,19.90
2023-05-02T13:26:39.341Z,19.86
2023-05-02T13:28:42.354Z,19.84
2023-05-02T13:30:45.494Z,19.83
2023-05-02T13:32:48.828Z,19.83
2023-05-02T13:34:51.727Z,19.83
2023-05-02T13:36:54.582Z,19.87
2023-05-02T13:38:58.861Z,19.95
2023-05-02T13:41:01.628Z,20.03
2023-05-02T13:43:04.742Z,20.10
2023-05-02T13:45:08.506Z,20.12
2023-05-02T13:47:11.768Z,20.14
2023-05-02T13:49:14.777Z,20.09
2023-05-02T13:51:17.760Z,20.01
2023-05-02T13:53:20.649Z,19.93
2023-05-02T13:55:25.066Z,19.87
2023-05-02T13:57:28.023Z,19.87
2023-05-02T13:59:31.001Z,19.87
2023-05-02T14:01:34.133Z,19.87
2023-05-02T14:03:37.259Z,19.88
2023-05-02T14:05:43.536Z,19.90
2023-05-02T14:07:47.261Z,19.91
2023-05-02T14:09:50.285Z,19.92
2023-05-02T14:11:55.645Z,19.91
2023-05-02T14:13:59.890Z,19.96
2023-05-02T14:16:02.950Z,20.00
2023-05-02T14:18:06.243Z,20.03
2023-05-02T14:20:10.515Z,20.04
2023-05-02T14:22:13.536Z,20.04
2023-05-02T14:24:18.334Z,20.02
2023-05-02T14:26:21.256Z,19.99
2023-05-02T14:28:27.020Z,19.97
2023-05-02T14:30:31.294Z,19.98
2023-05-02T14:32:34.361Z,20.00
2023-05-02T14:34:37.343Z,20.01
2023-05-02T14:36:40.904Z,20.04
2023-05-02T14:38:43.903Z,20.08
2023-05-02T14:40:46.887Z,20.10
2023-05-02T14:42:49.651Z,20.14
2023-05-02T14:44:53.769Z,20.18
2023-05-02T14:46:57.391Z,20.18
2023-05-02T14:49:00.503Z,20.20
2023-05-02T14:51:05.080Z,20.19
2023-05-02T14:53:08.288Z,20.14
2023-05-02T14:55:12.036Z,20.14
2023-05-02T14:57:15.675Z,20.14
2023-05-02T14:59:21.218Z,20.12
2023-05-02T15:01:25.703Z,20.12
2023-05-02T15:03:28.828Z,20.13
2023-05-02T15:05:32.014Z,20.12
2023-05-02T15:07:35.019Z,20.13
2023-05-02T15:09:38.089Z,20.15
2023-05-02T15:11:41.155Z,20.15
2023-05-02T15:13:44.093Z,20.17
2023-05-02T15:15:48.024Z,20.19
2023-05-02T15:17:53.181Z,20.21
2023-05-02T15:19:58.542Z,20.24
2023-05-02T15:22:01.804Z,20.26
2023-05-02T15:24:05.807Z,20.28
2023-05-02T15:26:08.764Z,20.29
2023-05-02T15:28:11.646Z,20.29
2023-05-02T15:30:16.636Z,20.28
2023-05-02T15:32:21.658Z,20.28
2023-05-02T15:34:25.945Z,20.27
2023-05-02T15:36:30.077Z,20.26
2023-05-02T15:38:34.012Z,20.25
2023-05-02T15:40:36.798Z,20.27
2023-05-02T15:42:40.138Z,20.27
2023-05-02T15:44:42.990Z,20.27
2023-05-02T15:46:47.124Z,20.27
2023-05-02T15:48:50.625Z,20.30
2023-05-02T15:50:54.995Z,20.32
2023-05-02T15:52:57.697Z,20.33
2023-05-02T15:55:01.665Z,20.35
2023-05-02T15:57:04.633Z,20.33
2023-05-02T15:59:07.454Z,20.28
2023-05-02T16:01:10.711Z,20.24
2023-05-02T16:03:14.105Z,20.18
2023-05-02T16:05:17.127Z,20.16
2023-05-02T16:07:21.541Z,20.15
2023-05-02T16:09:24.592Z,20.16
2023-05-02T16:11:27.315Z,20.16
2023-05-02T16:13:30.343Z,20.18
2023-05-02T16:15:33.306Z,20.19
2023-05-02T16:17:36.139Z,20.18
2023-05-02T16:19:39.049Z,20.16
2023-05-02T16:21:42.827Z,20.19
2023-05-02T16:23:46.975Z,20.20
2023-05-02T16:25:49.907Z,20.19
2023-05-02T16:27:52.947Z,20.16
2023-05-02T16:29:56.441Z,20.16
2023-05-02T16:31:59.742Z,20.17
2023-05-02T16:34:05.005Z,20.18
2023-05-02T16:36:08.299Z,20.18
2023-05-02T16:38:13.944Z,20.19
2023-05-02T16:40:18.614Z,20.16
2023-05-02T16:42:21.349Z,20.15
2023-05-02T16:44:24.507Z,20.12
2023-05-02T16:46:27.440Z,20.12
2023-05-02T16:48:30.582Z,20.09
2023-05-02T16:50:33.390Z,20.05
2023-05-02T16:52:38.130Z,20.05
2023-05-02T16:54:40.982Z,20.03
2023-05-02T16:56:45.128Z,20.02
2023-05-02T16:58:48.043Z,20.02
2023-05-02T17:00:50.851Z,20.01
2023-05-02T17:02:56.913Z,20.02
2023-05-02T17:05:00.195Z,20.02
2023-05-02T17:07:03.044Z,20.01
2023-05-02T17:09:06.292Z,20.01
2023-05-02T17:11:09.061Z,20.01
2023-05-02T17:13:13.176Z,20.03
2023-05-02T17:15:16.226Z,20.01
2023-05-02T17:17:22.607Z,20.01
2023-05-02T17:19:25.922Z,20.02
2023-05-02T17:21:29.015Z,19.99
2023-05-02T17:23:31.928Z,19.97
2023-05-02T17:25:34.671Z,19.95
2023-05-02T17:27:40.159Z,19.94
2023-05-02T17:29:45.144Z,19.92
2023-05-02T17:31:48.263Z,19.90
2023-05-02T17:33:51.045Z,19.90
2023-05-02T17:35:54.264Z,19.89
2023-05-02T17:37:57.081Z,19.85
2023-05-02T17:40:01.305Z,19.80
2023-05-02T17:42:04.216Z,19.78
2023-05-02T17:44:07.087Z,19.72
2023-05-02T17:46:13.672Z,19.70
2023-05-02T17:48:16.559Z,19.65
2023-05-02T17:50:19.627Z,19.66
2023-05-02T17:52:22.600Z,19.63
2023-05-02T17:54:25.689Z,19.60
2023-05-02T17:56:28.430Z,19.57
2023-05-02T17:58:31.341Z,19.57
2023-05-02T18:00:35.568Z,19.54
2023-05-02T18:02:39.876Z,19.51
2023-05-02T18:04:44.032Z,19.49
2023-05-02T18:06:48.184Z,19.47
2023-05-02T18:08:51.456Z,19.44
2023-05-02T18:10:54.601Z,19.38
2023-05-02T18:12:57.530Z,19.36
2023-05-02T18:15:01.974Z,19.34
2023-05-02T18:17:07.009Z,19.32
2023-05-02T18:19:12.564Z,19.32
2023-05-02T18:21:21.871Z,19.27
2023-05-02T18:23:25.188Z,19.25
2023-05-02T18:25:28.005Z,19.21
2023-05-02T18:27:30.726Z,19.18
2023-05-02T18:29:36.468Z,19.14
2023-05-02T18:31:40.324Z,19.10
2023-05-02T18:33:43.381Z,19.05
2023-05-02T18:35:48.390Z,19.02
2023-05-02T18:37:51.601Z,19.00
2023-05-02T18:39:56.247Z,18.94
2023-05-02T18:41:59.240Z,18.90
2023-05-02T18:44:05.121Z,18.83
2023-05-02T18:46:09.487Z,18.79
2023-05-02T18:48:12.450Z,18.76
2023-05-02T18:50:15.528Z,18.71
2023-05-02T18:52:19.635Z,18.68
2023-05-02T18:54:23.454Z,18.65
2023-05-02T18:56:26.613Z,18.62
2023-05-02T18:58:29.508Z,18.61
2023-05-02T19:00:37.075Z,18.60
2023-05-02T19:02:40.133Z,18.58
2023-05-02T19:04:43.005Z,18.59
2023-05-02T19:06:46.160Z,18.54
2023-05-02T19:08:50.658Z,18.52
2023-05-02T19:10:53.481Z,18.51
2023-05-02T19:12:56.593Z,18.50
2023-05-02T19:14:59.419Z,18.48
2023-05-02T19:17:02.279Z,18.46
2023-05-02T19:19:05.076Z,18.40
2023-05-02T19:21:13.470Z,18.36
2023-05-02T19:23:20.154Z,18.34
2023-05-02T19:25:24.963Z,18.33
2023-05-02T19:27:27.668Z,18.32
2023-05-02T19:29:30.500Z,18.29
2023-05-02T19:31:34.316Z,18.26
2023-05-02T19:33:37.492Z,18.26
2023-05-02T19:35:40.457Z,18.26
2023-05-02T19:37:43.936Z,18.23
2023-05-02T19:39:46.705Z,18.22
2023-05-02T19:41:50.990Z,18.21
2023-05-02T19:43:55.622Z,18.19
2023-05-02T19:45:58.696Z,18.16
2023-05-02T19:48:01.604Z,18.12
2023-05-02T19:50:04.710Z,18.09
2023-05-02T19:52:08.198Z,18.06
2023-05-02T19:54:11.766Z,18.07
2023-05-02T19:56:14.558Z,18.07
2023-05-02T19:58:18.794Z,18.07
2023-05-02T20:00:22.168Z,18.08
2023-05-02T20:02:25.415Z,18.08
2023-05-02T20:04:28.284Z,18.08
2023-05-02T20:06:32.083Z,18.03
2023-05-02T20:08:34.999Z,18.01
2023-05-02T20:10:38.048Z,17.97
2023-05-02T20:12:44.646Z,17.95
2023-05-02T20:14:48.767Z,17.93
2023-05-02T20:16:51.660Z,17.92
2023-05-02T20:18:54.719Z,17.91
2023-05-02T20:20:57.727Z,17.91
2023-05-02T20:23:00.468Z,17.95
2023-05-02T20:25:03.792Z,17.95
2023-05-02T20:27:06.649Z,17.96
2023-05-02T20:29:10.574Z,17.95
2023-05-02T20:31:14.834Z,17.92
2023-05-02T20:33:18.360Z,17.91
2023-05-02T20:35:21.349Z,17.92
2023-05-02T20:37:25.530Z,17.92
2023-05-02T20:39:28.265Z,17.91
2023-05-02T20:41:32.314Z,17.88
2023-05-02T20:43:36.113Z,17.90
2023-05-02T20:45:39.982Z,17.87
2023-05-02T20:47:44.191Z,17.85
2023-05-02T20:49:47.622Z,17.81
2023-05-02T20:51:51.517Z,17.77
2023-05-02T20:53:54.470Z,17.78
2023-05-02T20:55:57.263Z,17.81
2023-05-02T20:57:59.978Z,17.80
2023-05-02T21:00:04.427Z,17.77
2023-05-02T21:02:08.316Z,17.74
2023-05-02T21:04:14.188Z,17.75
2023-05-02T21:06:21.143Z,17.73
2023-05-02T21:08:27.922Z,17.73
2023-05-02T21:10:34.000Z,17.70
2023-05-02T21:12:40.059Z,17.67
2023-05-02T21:14:45.952Z,17.66
2023-05-02T21:16:52.016Z,17.64
2023-05-02T21:18:58.005Z,17.63
2023-05-02T21:21:04.971Z,17.66
2023-05-02T21:23:11.920Z,17.66
2023-05-02T21:25:17.902Z,17.67
2023-05-02T21:27:24.067Z,17.66
2023-05-02T21:29:28.137Z,17.62
2023-05-02T21:31:34.082Z,17.58
2023-05-02T21:33:38.131Z,17.54
2023-05-02T21:35:42.026Z,17.49
2023-05-02T21:37:47.131Z,17.45
2023-05-02T21:39:51.090Z,17.42
2023-05-02T21:41:55.202Z,17.38
2023-05-02T21:43:59.059Z,17.34
2023-05-02T21:46:03.184Z,17.35
2023-05-02T21:48:07.092Z,17.32
2023-05-02T21:50:11.277Z,17.29
2023-05-02T21:52:15.106Z,17.29
2023-05-02T21:54:21.196Z,17.27
2023-05-02T21:56:25.025Z,17.23
2023-05-02T21:58:30.222Z,17.21
2023-05-02T22:00:34.094Z,17.16
2023-05-02T22:02:38.276Z,17.18
2023-05-02T22:04:49.154Z,17.14
